createdAt,value
2022-12-09T00:01:24.325Z,100373.91
2022-12-09T00:06:29.254Z,100365.41
2022-12-09T00:11:32.046Z,100362.97
2022-12-09T00:16:36.309Z,100362.06
2022-12-09T00:21:39.477Z,100367.03
2022-12-09T00:26:44.333Z,100365.50
2022-12-09T00:31:48.985Z,100373.78
2022-12-09T00:36:54.648Z,100366.81
2022-12-09T00:42:00.967Z,100377.88
2022-12-09T00:47:06.954Z,100387.25
2022-12-09T00:52:11.281Z,100389.84
2022-12-09T00:57:14.127Z,100390.59
2022-12-09T01:02:19.924Z,100387.09
2022-12-09T01:07:23.785Z,100384.63
2022-12-09T01:12:28.495Z,100408.09
2022-12-09T01:17:35.725Z,100402.16
2022-12-09T01:22:43.051Z,100397.53
2022-12-09T01:27:50.738Z,100401.78
2022-12-09T01:32:55.388Z,100402.22
2022-12-09T01:37:58.637Z,100400.84
2022-12-09T01:43:03.558Z,100393.06
2022-12-09T01:48:14.202Z,100391.50
2022-12-09T01:53:24.091Z,100403.94
2022-12-09T01:58:27.822Z,100397.53
2022-12-09T02:03:32.538Z,100395.78
2022-12-09T02:08:35.863Z,100389.81
2022-12-09T02:13:48.478Z,100382.03
2022-12-09T02:19:01.643Z,100375.66
2022-12-09T02:24:09.692Z,100374.19
2022-12-09T02:29:28.329Z,100366.75
2022-12-09T02:34:38.795Z,100365.41
2022-12-09T02:39:51.700Z,100361.88
2022-12-09T02:44:59.516Z,100366.69
2022-12-09T02:50:08.888Z,100365.97
2022-12-09T02:55:16.510Z,100366.78
2022-12-09T03:00:20.227Z,100359.34
2022-12-09T03:05:29.238Z,100360.28
2022-12-09T03:10:38.521Z,100365.22
2022-12-09T03:15:46.066Z,100363.28
2022-12-09T03:20:51.962Z,100364.63
2022-12-09T03:25:56.777Z,100359.84
2022-12-09T03:31:04.422Z,100350.84
2022-12-09T03:36:13.146Z,100346.78
2022-12-09T03:41:21.863Z,100349.97
2022-12-09T03:46:25.452Z,100339.91
2022-12-09T03:51:35.880Z,100343.56
2022-12-09T03:56:42.995Z,100343.81
2022-12-09T04:01:48.152Z,100333.19
2022-12-09T04:06:55.091Z,100337.66
2022-12-09T04:11:57.972Z,100332.47
2022-12-09T04:17:01.063Z,100331.69
2022-12-09T04:22:06.096Z,100337.06
2022-12-09T04:27:08.910Z,100330.44
2022-12-09T04:32:11.901Z,100341.22
2022-12-09T04:37:16.679Z,100341.41
2022-12-09T04:42:19.883Z,100336.00
2022-12-09T04:47:23.003Z,100347.00
2022-12-09T04:52:27.623Z,100346.00
2022-12-09T04:57:30.874Z,100345.19
2022-12-09T05:02:34.272Z,100340.94
2022-12-09T05:07:38.817Z,100348.44
2022-12-09T05:12:42.073Z,100345.34
2022-12-09T05:17:45.252Z,100338.59
2022-12-09T05:22:52.606Z,100342.72
2022-12-09T05:27:55.667Z,100348.31
2022-12-09T05:32:58.641Z,100351.47
2022-12-09T05:38:03.428Z,100348.78
2022-12-09T05:43:06.745Z,100340.72
2022-12-09T05:48:09.905Z,100334.91
2022-12-09T05:53:14.085Z,100335.06
2022-12-09T05:58:17.218Z,100335.22
2022-12-09T06:03:21.498Z,100327.69
2022-12-09T06:08:26.119Z,100335.31
2022-12-09T06:13:29.781Z,100334.19
2022-12-09T06:18:33.167Z,100327.59
2022-12-09T06:23:39.176Z,100334.63
2022-12-09T06:28:42.396Z,100334.94
2022-12-09T06:33:54.724Z,100339.13
2022-12-09T06:39:07.690Z,100330.16
2022-12-09T06:44:17.211Z,100330.72
2022-12-09T06:49:24.824Z,100328.31
2022-12-09T06:54:29.650Z,100327.59
2022-12-09T06:59:32.895Z,100327.00
2022-12-09T07:04:36.505Z,100330.28
2022-12-09T07:09:41.197Z,100334.22
2022-12-09T07:14:44.380Z,100335.84
2022-12-09T07:19:48.100Z,100344.41
2022-12-09T07:24:52.852Z,100347.69
2022-12-09T07:29:56.026Z,100341.69
2022-12-09T07:34:58.852Z,100338.69
2022-12-09T07:40:04.035Z,100344.06
2022-12-09T07:45:08.213Z,100362.38
2022-12-09T07:50:12.391Z,100356.38
2022-12-09T07:55:16.648Z,100356.38
2022-12-09T08:00:20.786Z,100374.81
2022-12-09T08:05:23.863Z,100368.06
2022-12-09T08:10:28.222Z,100367.66
2022-12-09T08:15:31.590Z,100377.06
2022-12-09T08:20:34.496Z,100380.22
2022-12-09T08:25:38.810Z,100375.56
2022-12-09T08:30:41.854Z,100373.94
2022-12-09T08:35:45.752Z,100372.00
2022-12-09T08:40:50.017Z,100379.31
2022-12-09T08:45:53.204Z,100367.31
2022-12-09T08:50:56.155Z,100369.41
2022-12-09T08:56:00.673Z,100369.44
2022-12-09T09:01:03.973Z,100365.53
2022-12-09T09:06:10.749Z,100378.88
2022-12-09T09:11:17.835Z,100372.56
2022-12-09T09:16:22.880Z,100371.34
2022-12-09T09:21:27.102Z,100377.81
2022-12-09T09:26:31.845Z,100375.22
2022-12-09T09:31:35.794Z,100377.34
2022-12-09T09:36:39.067Z,100368.81
2022-12-09T09:41:51.853Z,100368.88
2022-12-09T09:46:56.564Z,100371.59
2022-12-09T09:52:04.546Z,100371.84
2022-12-09T09:57:15.947Z,100368.78
2022-12-09T10:02:24.181Z,100370.75
2022-12-09T10:07:32.594Z,100369.72
2022-12-09T10:12:46.035Z,100364.19
2022-12-09T10:17:53.460Z,100363.91
2022-12-09T10:23:01.050Z,100361.50
2022-12-09T10:28:10.281Z,100360.75
2022-12-09T10:33:14.799Z,100353.09
2022-12-09T10:38:20.279Z,100351.28
2022-12-09T10:43:38.475Z,100349.78
2022-12-09T10:48:44.596Z,100354.88
2022-12-09T10:53:51.690Z,100350.66
2022-12-09T10:59:11.457Z,100352.34
2022-12-09T11:04:15.132Z,100349.63
2022-12-09T11:09:24.204Z,100356.97
2022-12-09T11:14:34.949Z,100349.53
2022-12-09T11:19:39.890Z,100350.34
2022-12-09T11:24:43.341Z,100355.06
2022-12-09T11:29:47.563Z,100339.31
2022-12-09T11:34:50.921Z,100343.53
2022-12-09T11:39:54.066Z,100342.75
2022-12-09T11:45:05.407Z,100334.13
2022-12-09T11:50:19.069Z,100339.72
2022-12-09T11:55:24.965Z,100347.84
2022-12-09T12:00:35.329Z,100344.63
2022-12-09T12:05:42.004Z,100338.94
2022-12-09T12:10:48.773Z,100332.44
2022-12-09T12:16:02.924Z,100334.69
2022-12-09T12:21:22.194Z,100331.91
2022-12-09T12:26:27.949Z,100333.47
2022-12-09T12:31:50.903Z,100321.91
2022-12-09T12:37:02.967Z,100317.09
2022-12-09T12:42:19.942Z,100322.31
2022-12-09T12:47:29.534Z,100316.94
2022-12-09T12:52:55.943Z,100319.78
2022-12-09T12:58:06.967Z,100320.06
2022-12-09T13:03:22.911Z,100312.75
2022-12-09T13:08:34.406Z,100310.53
2022-12-09T13:14:01.790Z,100309.34
2022-12-09T13:19:16.936Z,100318.84
2022-12-09T13:24:27.328Z,100314.09
2022-12-09T13:29:40.110Z,100314.91
2022-12-09T13:34:49.941Z,100316.66
2022-12-09T13:39:58.190Z,100314.06
2022-12-09T13:45:06.679Z,100314.91
2022-12-09T13:50:23.795Z,100308.50
2022-12-09T13:55:33.784Z,100314.34
2022-12-09T14:00:36.727Z,100306.09
2022-12-09T14:05:41.318Z,100314.16
2022-12-09T14:10:47.705Z,100311.44
2022-12-09T14:16:25.972Z,100307.19
2022-12-09T14:21:33.465Z,100304.91
2022-12-09T14:26:37.481Z,100305.69
2022-12-09T14:32:02.667Z,100308.00
2022-12-09T14:37:27.744Z,100312.84
2022-12-09T14:42:44.781Z,100309.56
2022-12-09T14:47:48.750Z,100310.63
2022-12-09T14:52:55.414Z,100310.28
2022-12-09T14:58:01.023Z,100313.72
2022-12-09T15:08:31.849Z,100317.19
2022-12-09T15:13:37.307Z,100308.63
2022-12-09T15:18:42.619Z,100317.97
2022-12-09T15:23:47.042Z,100317.56
2022-12-09T15:28:52.747Z,100315.47
2022-12-09T15:33:57.139Z,100315.75
2022-12-09T15:39:06.729Z,100318.16
2022-12-09T15:44:17.041Z,100326.25
2022-12-09T15:49:24.116Z,100322.78
2022-12-09T15:54:33.121Z,100327.28
2022-12-09T15:59:40.080Z,100340.34
2022-12-09T16:04:45.757Z,100330.16
2022-12-09T16:10:04.766Z,100334.19
2022-12-09T16:15:10.032Z,100333.88
2022-12-09T16:20:32.715Z,100325.75
2022-12-09T16:25:42.291Z,100331.31
2022-12-09T16:30:46.752Z,100336.28
2022-12-09T16:35:59.527Z,100339.19
2022-12-09T16:41:12.381Z,100346.38
2022-12-09T16:46:38.439Z,100349.66
2022-12-09T16:51:41.693Z,100350.22
2022-12-09T16:56:46.147Z,100352.16
2022-12-09T17:01:49.021Z,100355.63
2022-12-09T17:06:52.128Z,100355.25
2022-12-09T17:11:56.236Z,100367.31
2022-12-09T17:17:00.123Z,100363.81
2022-12-09T17:22:03.244Z,100359.91
2022-12-09T17:27:07.519Z,100361.81
2022-12-09T17:32:10.303Z,100361.56
2022-12-09T17:37:13.142Z,100363.69
2022-12-09T17:42:17.440Z,100368.16
2022-12-09T17:47:20.372Z,100382.25
2022-12-09T17:52:23.316Z,100375.38
2022-12-09T17:57:27.521Z,100377.03
2022-12-09T18:02:30.415Z,100378.47
2022-12-09T18:07:33.361Z,100385.88
2022-12-09T18:12:37.471Z,100390.63
2022-12-09T18:17:40.328Z,100390.88
2022-12-09T18:22:43.112Z,100394.75
2022-12-09T18:27:47.313Z,100397.84
2022-12-09T18:32:52.866Z,100395.81
2022-12-09T18:38:06.010Z,100411.22
2022-12-09T18:50:19.409Z,100419.63
2022-12-09T18:56:20.819Z,100421.41
2022-12-09T19:08:17.062Z,100431.03
2022-12-09T19:13:19.875Z,100434.69
2022-12-09T19:18:24.089Z,100430.44
2022-12-09T19:23:32.434Z,100434.34
2022-12-09T19:28:35.361Z,100439.19
2022-12-09T20:13:59.945Z,100481.25
2022-12-09T20:19:03.078Z,100482.19
2022-12-09T20:24:06.593Z,100495.91
2022-12-09T20:29:12.342Z,100487.84
2022-12-09T20:34:17.966Z,100487.41
2022-12-09T20:39:22.151Z,100488.38
2022-12-09T20:44:29.192Z,100498.53
2022-12-09T20:49:35.173Z,100497.25
2022-12-09T20:54:38.034Z,100503.31
2022-12-09T20:59:42.247Z,100500.44
2022-12-09T21:04:46.023Z,100497.38
2022-12-09T21:09:48.889Z,100501.19
2022-12-09T21:14:53.074Z,100506.28
2022-12-09T21:19:55.861Z,100512.56
2022-12-09T21:24:58.680Z,100513.94
2022-12-09T21:30:02.903Z,100513.63
2022-12-09T21:35:06.659Z,100503.94
2022-12-09T21:40:10.664Z,100495.69
2022-12-09T21:45:15.276Z,100496.69
2022-12-09T21:50:18.520Z,100499.56
2022-12-09T21:55:22.335Z,100510.75
2022-12-09T22:00:26.637Z,100518.69
2022-12-09T22:05:29.467Z,100513.50
2022-12-09T22:10:32.310Z,100523.25
2022-12-09T22:15:37.756Z,100523.81
2022-12-09T22:26:06.197Z,100531.66
2022-12-09T22:31:11.719Z,100532.84
2022-12-09T22:36:15.298Z,100531.53
2022-12-09T22:41:20.875Z,100526.69
2022-12-09T22:46:27.797Z,100528.72
2022-12-09T22:51:33.478Z,100531.56
2022-12-09T22:56:41.465Z,100534.31
2022-12-09T23:01:47.670Z,100532.59
2022-12-09T23:06:51.405Z,100528.13
2022-12-09T23:11:54.750Z,100532.09
2022-12-09T23:16:58.846Z,100526.44
2022-12-09T23:22:02.319Z,100527.34
2022-12-09T23:27:05.900Z,100524.69
2022-12-09T23:32:10.133Z,100526.13
2022-12-09T23:37:14.221Z,100521.78
2022-12-09T23:42:17.396Z,100521.78
2022-12-09T23:47:21.567Z,100528.97
2022-12-09T23:52:24.299Z,100528.50
2022-12-09T23:57:27.032Z,100529.41
